Peonia, Kentucky
Current Conditions -  °F | °C
As of 1:55 PM on Saturday 20 Dec 2014 (Local Time) from KGLW Reporting Station
Clear Clear  
Wind Chill: 43°   Ceiling: Unl
Heat Index: 43°   Visibility: 10mi
Dew Point: 28°   Wind: 0mph
Humidity: 55%   Direction: NA
Pressure: 30.23"   Gusts: NA
Location:  37.4262°N, 86.1465°W
Report Text: KGLW 201955Z AUTO 00000KT 10SM CLR 06/M02 A3023 RMK AO2 T00591025
Loading
Personal Weather Stations






























Interactive Weather Map New forecast layout! Learn more

10-Day Weather Forecast

Advertisements
Track Severe Weather on mobile